Time;durP1;ratioP1;P1;durP2;ratioP2;P2;SDS_P1;SDS_P2;PMS_P1;PMS_P2;Temp;Humidity;BMP_temperature;BMP_pressure;BME280_temperature;BME280_humidity;BME280_pressure;Samples;Min_cycle;Max_cycle;Signal;HPM_P1;HPM_P2
2023/12/19 00:01:12;;;;;;;40.47;23.35;;;7.90;99.90;;;;;;5071319;28;20105;-70
2023/12/19 00:03:38;;;;;;;40.83;22.77;;;7.90;99.90;;;;;;5070571;28;20484;-71
2023/12/19 00:06:07;;;;;;;39.75;22.15;;;7.90;99.90;;;;;;5071234;28;20110;-71
2023/12/19 00:08:34;;;;;;;42.22;22.13;;;7.80;99.90;;;;;;5070921;28;20102;-71
2023/12/19 00:11:01;;;;;;;35.97;20.48;;;7.90;99.90;;;;;;5070069;28;20060;-70
2023/12/19 00:13:28;;;;;;;41.45;21.85;;;7.80;99.90;;;;;;5070645;28;20094;-70
2023/12/19 00:15:54;;;;;;;34.95;21.15;;;7.80;99.90;;;;;;5070910;28;20055;-70
2023/12/19 00:18:21;;;;;;;33.20;20.50;;;7.80;99.90;;;;;;5070335;28;20079;-71
2023/12/19 00:20:52;;;;;;;35.75;19.88;;;7.90;99.90;;;;;;5071057;28;20432;-71
2023/12/19 00:23:20;;;;;;;;;;;7.90;99.90;;;;;;5071289;28;20052;-71
2023/12/19 00:25:47;;;;;;;33.85;19.33;;;7.90;99.90;;;;;;5070555;28;19951;-71
2023/12/19 00:28:14;;;;;;;34.05;21.60;;;7.90;99.90;;;;;;5070747;28;20443;-70
2023/12/19 00:30:41;;;;;;;34.45;20.25;;;7.90;99.90;;;;;;5070393;28;20386;-71
2023/12/19 00:33:08;;;;;;;35.80;19.10;;;7.90;99.90;;;;;;5069755;28;20090;-70
2023/12/19 00:35:35;;;;;;;42.10;20.30;;;8.00;99.90;;;;;;5070860;28;20041;-71
2023/12/19 00:38:04;;;;;;;36.13;20.38;;;8.00;99.90;;;;;;5070115;28;20052;-71
2023/12/19 00:40:32;;;;;;;40.67;21.45;;;8.00;99.90;;;;;;5070353;28;20543;-70
2023/12/19 00:42:59;;;;;;;41.60;22.58;;;8.00;99.90;;;;;;5070536;28;20060;-70
2023/12/19 00:45:26;;;;;;;40.42;23.05;;;8.00;99.90;;;;;;5070270;28;20408;-69
2023/12/19 00:47:53;;;;;;;39.50;20.02;;;8.00;99.90;;;;;;5070362;28;20044;-69
2023/12/19 00:50:20;;;;;;;40.97;21.80;;;8.00;99.90;;;;;;5070478;28;20048;-70
2023/12/19 00:52:47;;;;;;;33.40;19.50;;;8.10;99.90;;;;;;5069893;28;20518;-70
2023/12/19 00:55:14;;;;;;;32.05;19.90;;;8.00;99.90;;;;;;5070596;28;20052;-69
2023/12/19 00:57:42;;;;;;;31.75;19.75;;;8.00;99.90;;;;;;5070587;28;20098;-69
2023/12/19 01:00:10;;;;;;;37.60;20.73;;;8.20;99.90;;;;;;5070120;28;20133;-70
2023/12/19 01:02:37;;;;;;;32.65;18.98;;;8.00;99.90;;;;;;5070300;28;20051;-69
2023/12/19 01:05:04;;;;;;;33.08;21.35;;;8.00;99.90;;;;;;5071763;28;20045;-70
2023/12/19 01:07:31;;;;;;;32.60;19.88;;;8.10;99.90;;;;;;5070960;28;20465;-70
2023/12/19 01:09:58;;;;;;;37.60;20.77;;;8.10;99.90;;;;;;5071563;28;20041;-70
2023/12/19 01:12:25;;;;;;;32.38;18.95;;;8.00;99.90;;;;;;5070268;28;20041;-70
2023/12/19 01:14:53;;;;;;;33.35;19.13;;;8.10;99.90;;;;;;5069732;28;20090;-70
2023/12/19 01:17:20;;;;;;;34.05;20.15;;;8.00;99.90;;;;;;5070296;28;20056;-70
2023/12/19 01:19:47;;;;;;;30.23;18.42;;;8.10;99.90;;;;;;5070063;28;20056;-70
2023/12/19 01:22:14;;;;;;;31.63;19.40;;;8.10;99.90;;;;;;5072545;28;20044;-70
2023/12/19 01:24:40;;;;;;;40.13;20.70;;;8.00;99.90;;;;;;5074194;28;20098;-70
2023/12/19 01:27:07;;;;;;;32.75;18.38;;;8.10;99.90;;;;;;5072180;28;20106;-71
2023/12/19 01:29:34;;;;;;;30.98;17.73;;;8.10;99.90;;;;;;5074735;28;20110;-70
2023/12/19 01:32:03;;;;;;;28.90;18.15;;;8.10;99.90;;;;;;5073913;28;20044;-70
2023/12/19 01:34:30;;;;;;;33.75;19.30;;;8.10;99.90;;;;;;5073277;28;20056;-70
2023/12/19 01:36:57;;;;;;;32.13;18.77;;;8.00;99.90;;;;;;5073787;28;20520;-70
2023/12/19 01:39:24;;;;;;;31.95;17.40;;;8.10;99.90;;;;;;5073831;28;20060;-69
2023/12/19 01:41:51;;;;;;;27.85;16.63;;;8.10;99.90;;;;;;5072821;28;20098;-69
2023/12/19 01:44:19;;;;;;;31.85;19.25;;;8.10;99.90;;;;;;5073290;28;20060;-69
2023/12/19 01:46:46;;;;;;;30.35;18.63;;;8.10;99.90;;;;;;5073325;28;20044;-69
2023/12/19 01:49:15;;;;;;;27.13;17.52;;;8.10;99.90;;;;;;5072741;28;20052;-69
2023/12/19 01:51:42;;;;;;;25.13;15.60;;;8.10;99.90;;;;;;5073409;28;20052;-70
2023/12/19 01:54:10;;;;;;;25.25;16.48;;;8.10;99.90;;;;;;5072957;28;20053;-69
2023/12/19 01:56:38;;;;;;;22.63;15.77;;;8.20;99.90;;;;;;5073028;28;20052;-69
2023/12/19 01:59:06;;;;;;;20.98;13.98;;;8.10;99.90;;;;;;5071674;28;20447;-70
2023/12/19 02:01:35;;;;;;;19.63;13.07;;;8.10;99.90;;;;;;5073300;28;20052;-70
2023/12/19 02:04:02;;;;;;;25.15;14.98;;;8.10;99.90;;;;;;5072585;28;20097;-70
2023/12/19 02:06:34;;;;;;;22.45;13.65;;;8.10;99.90;;;;;;5071249;28;20092;-70
2023/12/19 02:09:01;;;;;;;22.23;13.70;;;8.10;99.90;;;;;;5072860;28;20496;-70
2023/12/19 02:11:28;;;;;;;23.85;14.25;;;8.10;99.90;;;;;;5073076;28;20477;-71
2023/12/19 02:13:56;;;;;;;22.25;12.90;;;8.10;99.90;;;;;;5072832;28;20522;-70
2023/12/19 02:16:24;;;;;;;20.67;12.52;;;8.20;99.90;;;;;;5072544;28;20480;-70
2023/12/19 02:19:01;;;;;;;21.02;13.93;;;8.00;99.90;;;;;;5072893;28;20114;-70
2023/12/19 02:21:28;;;;;;;21.42;12.10;;;8.10;99.90;;;;;;5072926;28;20087;-71
2023/12/19 02:23:56;;;;;;;20.35;13.73;;;8.10;99.90;;;;;;5072249;28;20093;-69
2023/12/19 02:26:23;;;;;;;19.25;12.60;;;8.10;99.90;;;;;;5072904;28;20444;-70
2023/12/19 02:28:52;;;;;;;19.48;12.82;;;8.10;99.90;;;;;;5072486;28;20098;-69
2023/12/19 02:31:20;;;;;;;24.05;13.75;;;8.00;99.90;;;;;;5072354;28;20052;-69
2023/12/19 02:33:47;;;;;;;20.05;12.60;;;8.10;99.90;;;;;;5071355;28;20075;-69
2023/12/19 02:36:15;;;;;;;20.67;12.88;;;8.10;99.90;;;;;;5072843;28;20056;-70
2023/12/19 02:38:42;;;;;;;22.23;13.50;;;8.00;99.90;;;;;;5069853;28;20044;-70
2023/12/19 02:41:10;;;;;;;19.15;13.05;;;8.10;99.90;;;;;;5072536;28;20388;-70
2023/12/19 02:43:37;;;;;;;25.10;13.35;;;8.10;99.90;;;;;;5072034;28;20524;-70
2023/12/19 02:46:06;;;;;;;19.50;12.50;;;8.10;99.90;;;;;;5071637;28;20127;-71
2023/12/19 02:48:33;;;;;;;19.80;12.80;;;8.10;99.90;;;;;;5072052;28;20136;-71
2023/12/19 02:51:00;;;;;;;20.02;11.82;;;8.10;99.90;;;;;;5072310;28;20049;-70
2023/12/19 02:53:28;;;;;;;19.95;12.15;;;8.10;99.90;;;;;;5071400;28;20489;-69
2023/12/19 02:55:55;;;;;;;16.92;11.77;;;8.10;99.90;;;;;;5072417;28;20056;-71
2023/12/19 02:58:23;;;;;;;17.95;11.73;;;8.10;99.90;;;;;;5071577;28;20044;-69
2023/12/19 03:00:50;;;;;;;16.67;11.60;;;8.10;99.90;;;;;;5071879;28;20935;-69
2023/12/19 03:03:17;;;;;;;15.75;10.75;;;8.10;99.90;;;;;;5072296;28;20381;-70
2023/12/19 03:05:44;;;;;;;17.75;10.52;;;8.10;99.90;;;;;;5071257;28;20126;-70
2023/12/19 03:08:11;;;;;;;17.33;11.45;;;8.10;99.90;;;;;;5072011;28;20102;-70
2023/12/19 03:10:38;;;;;;;18.20;10.93;;;8.10;99.90;;;;;;5070761;28;20044;-70
2023/12/19 03:13:05;;;;;;;18.85;11.82;;;8.10;99.90;;;;;;5071178;28;20217;-69
2023/12/19 03:15:33;;;;;;;15.50;9.60;;;8.10;99.90;;;;;;5071816;28;20553;-69
2023/12/19 03:18:00;;;;;;;15.45;11.48;;;8.10;99.90;;;;;;5071738;28;20052;-69
2023/12/19 03:20:27;;;;;;;16.52;10.65;;;8.10;99.90;;;;;;5070798;28;20049;-69
2023/12/19 03:22:54;;;;;;;15.77;11.40;;;8.10;99.90;;;;;;5071733;28;20161;-71
2023/12/19 03:25:21;;;;;;;14.82;10.02;;;8.10;99.90;;;;;;5071594;28;20056;-69
2023/12/19 03:27:48;;;;;;;15.00;10.20;;;8.10;99.90;;;;;;5071200;28;20048;-70
2023/12/19 03:30:15;;;;;;;16.80;11.23;;;8.10;99.90;;;;;;5071532;28;20433;-70
2023/12/19 03:32:43;;;;;;;16.13;10.38;;;8.00;99.90;;;;;;5071401;28;20044;-70
2023/12/19 03:35:12;;;;;;;18.17;11.50;;;8.10;99.90;;;;;;5070782;28;20052;-70
2023/12/19 03:37:39;;;;;;;16.55;11.63;;;8.30;99.90;;;;;;5071542;28;20048;-70
2023/12/19 03:40:07;;;;;;;16.77;11.27;;;8.00;99.90;;;;;;5071282;28;20076;-70
2023/12/19 03:42:34;;;;;;;20.70;12.05;;;8.00;99.90;;;;;;5069024;28;20040;-70
2023/12/19 03:45:01;;;;;;;16.13;11.48;;;8.10;99.90;;;;;;5070884;28;20098;-70
2023/12/19 03:47:28;;;;;;;16.92;11.18;;;8.00;99.90;;;;;;5071940;28;20052;-71
2023/12/19 03:49:56;;;;;;;15.70;10.60;;;8.00;99.90;;;;;;5071050;28;20049;-70
2023/12/19 03:52:23;;;;;;;17.70;11.63;;;7.90;99.90;;;;;;5071310;28;20103;-70
2023/12/19 03:54:51;;;;;;;13.10;10.13;;;7.90;99.90;;;;;;5068016;28;20094;-69
2023/12/19 03:57:18;;;;;;;14.70;9.93;;;8.00;99.90;;;;;;5070777;28;20138;-69
2023/12/19 03:59:45;;;;;;;16.30;11.45;;;8.00;99.90;;;;;;5071175;28;20097;-69
2023/12/19 04:02:11;;;;;;;17.40;10.77;;;7.90;99.90;;;;;;5070600;28;20093;-69
2023/12/19 04:04:38;;;;;;;14.93;9.45;;;7.90;99.90;;;;;;5070099;28;20044;-69
2023/12/19 04:07:06;;;;;;;14.40;9.98;;;8.00;99.90;;;;;;5070990;28;20062;-70
2023/12/19 04:09:34;;;;;;;15.70;9.90;;;8.00;99.90;;;;;;5070375;28;20101;-69
2023/12/19 04:12:02;;;;;;;14.13;9.90;;;8.00;99.90;;;;;;5070900;28;20087;-70
2023/12/19 04:14:30;;;;;;;14.60;9.32;;;7.90;99.90;;;;;;5070729;28;20036;-70
2023/12/19 04:16:57;;;;;;;12.20;8.10;;;7.90;99.90;;;;;;5070528;28;20162;-70
2023/12/19 04:19:24;;;;;;;11.88;8.18;;;7.90;99.90;;;;;;5070941;28;20048;-69
2023/12/19 04:21:51;;;;;;;14.52;8.07;;;7.90;99.90;;;;;;5070906;28;20462;-70
2023/12/19 04:24:20;;;;;;;13.25;8.98;;;7.90;99.90;;;;;;5070277;28;20048;-69
2023/12/19 04:26:47;;;;;;;13.88;8.32;;;7.90;99.90;;;;;;5070850;28;20048;-69
2023/12/19 04:29:14;;;;;;;11.70;7.70;;;7.90;99.90;;;;;;5071021;28;20071;-70
2023/12/19 04:31:41;;;;;;;17.80;8.55;;;7.90;99.90;;;;;;5070114;28;20056;-70
2023/12/19 04:34:08;;;;;;;15.75;7.90;;;7.90;99.90;;;;;;5104499;28;20048;-70
2023/12/19 04:36:35;;;;;;;10.93;7.43;;;7.90;99.90;;;;;;5070251;28;20090;-70
2023/12/19 04:39:03;;;;;;;10.75;7.20;;;7.80;99.90;;;;;;5070829;28;20056;-70
2023/12/19 04:41:31;;;;;;;11.93;7.88;;;7.90;99.90;;;;;;5070605;28;20083;-70
2023/12/19 04:43:58;;;;;;;9.45;6.50;;;7.80;99.90;;;;;;5069715;28;21156;-70
2023/12/19 04:46:25;;;;;;;11.65;7.85;;;7.90;99.90;;;;;;5070353;28;20048;-70
2023/12/19 04:48:52;;;;;;;13.10;8.18;;;7.80;99.90;;;;;;5070605;28;20098;-70
2023/12/19 04:51:19;;;;;;;11.27;7.47;;;7.90;99.90;;;;;;5070180;28;20048;-68
2023/12/19 04:53:46;;;;;;;12.10;7.68;;;7.80;99.90;;;;;;5069658;28;20539;-70
2023/12/19 04:56:13;;;;;;;13.52;7.65;;;7.90;99.90;;;;;;5062203;28;20052;-70
2023/12/19 04:58:43;;;;;;;12.23;7.20;;;7.90;99.90;;;;;;5071768;28;20060;-69
2023/12/19 05:01:09;;;;;;;10.80;7.00;;;7.90;99.90;;;;;;5073572;28;20060;-69
2023/12/19 05:03:37;;;;;;;12.98;7.60;;;7.90;99.90;;;;;;5073464;28;20106;-76
2023/12/19 05:06:06;;;;;;;13.65;7.53;;;7.90;99.90;;;;;;5070385;28;20068;-70
2023/12/19 05:08:33;;;;;;;10.73;7.07;;;7.90;99.90;;;;;;5107083;28;20123;-70
2023/12/19 05:10:59;;;;;;;11.85;7.13;;;7.90;99.90;;;;;;5072526;28;20562;-70
2023/12/19 05:13:27;;;;;;;10.60;7.15;;;7.90;99.90;;;;;;5070585;28;20045;-70
2023/12/19 05:15:55;;;;;;;9.55;5.78;;;7.80;99.90;;;;;;5073289;28;20072;-70
2023/12/19 05:18:22;;;;;;;11.35;6.85;;;8.00;99.90;;;;;;5073603;28;20105;-70
2023/12/19 05:20:49;;;;;;;10.30;6.30;;;7.90;99.90;;;;;;5072613;28;20044;-70
2023/12/19 05:23:15;;;;;;;10.52;6.63;;;7.80;99.90;;;;;;5073327;28;20063;-70
2023/12/19 05:25:42;;;;;;;10.75;6.53;;;7.90;99.90;;;;;;5070631;28;20041;-70
2023/12/19 05:28:09;;;;;;;9.15;5.97;;;7.90;99.90;;;;;;5072601;28;20048;-71
2023/12/19 05:30:36;;;;;;;8.63;6.13;;;7.80;99.90;;;;;;5073051;28;20048;-71
2023/12/19 05:33:06;;;;;;;8.55;5.78;;;7.80;99.90;;;;;;5072432;28;20052;-71
2023/12/19 05:35:33;;;;;;;7.83;5.50;;;7.90;99.90;;;;;;5072754;28;20515;-71
2023/12/19 05:37:59;;;;;;;7.80;5.57;;;7.90;99.90;;;;;;5070951;28;20113;-72
2023/12/19 05:40:26;;;;;;;8.25;5.82;;;7.80;99.90;;;;;;5069066;28;20053;-72
2023/12/19 05:42:57;;;;;;;9.18;6.30;;;7.90;99.90;;;;;;5070716;28;20090;-71
2023/12/19 05:45:24;;;;;;;9.07;6.20;;;7.90;99.90;;;;;;5072494;28;20049;-72
2023/12/19 05:47:51;;;;;;;10.93;6.85;;;7.80;99.90;;;;;;5072998;28;20450;-71
2023/12/19 05:50:20;;;;;;;8.98;5.70;;;7.80;99.90;;;;;;5071049;28;20044;-71
2023/12/19 05:52:46;;;;;;;9.25;6.45;;;7.80;99.90;;;;;;5073202;28;20117;-71
2023/12/19 05:55:13;;;;;;;9.43;6.32;;;7.80;99.90;;;;;;5071736;28;20048;-70
2023/12/19 05:57:40;;;;;;;9.75;6.40;;;7.90;99.90;;;;;;5070778;28;20059;-70
2023/12/19 06:00:08;;;;;;;8.45;5.50;;;7.90;99.90;;;;;;5072196;28;20056;-71
2023/12/19 06:02:35;;;;;;;9.30;5.05;;;7.90;99.90;;;;;;5070781;28;20067;-69
2023/12/19 06:05:07;;;;;;;8.25;5.35;;;8.00;99.90;;;;;;5070687;28;20114;-74
2023/12/19 06:07:35;;;;;;;8.95;5.85;;;8.00;99.90;;;;;;5069558;28;20049;-70
2023/12/19 06:10:02;;;;;;;9.15;5.68;;;7.90;99.90;;;;;;5070703;28;20092;-70
2023/12/19 06:12:29;;;;;;;9.57;6.25;;;8.00;99.90;;;;;;5067765;28;20358;-70
2023/12/19 06:14:56;;;;;;;9.63;6.13;;;8.00;99.90;;;;;;5069676;28;20079;-71
2023/12/19 06:17:23;;;;;;;9.45;6.25;;;8.00;99.90;;;;;;5068087;28;20060;-71
2023/12/19 06:19:50;;;;;;;8.75;5.50;;;8.00;99.90;;;;;;5068902;28;20101;-71
2023/12/19 06:22:17;;;;;;;8.20;5.03;;;9.10;99.90;;;;;;5065716;28;20129;-71
2023/12/19 06:24:45;;;;;;;8.00;5.43;;;8.00;99.90;;;;;;5070156;28;20041;-71
2023/12/19 06:27:16;;;;;;;7.82;5.13;;;8.00;99.90;;;;;;5070954;28;20060;-71
2023/12/19 06:29:43;;;;;;;11.05;5.70;;;8.00;99.90;;;;;;5070653;28;20534;-70
2023/12/19 06:32:10;;;;;;;11.25;5.38;;;8.10;99.90;;;;;;5069332;28;20045;-70
2023/12/19 06:34:38;;;;;;;8.52;5.72;;;8.10;99.90;;;;;;5105792;28;20075;-70
2023/12/19 06:37:05;;;;;;;8.95;5.55;;;8.00;99.90;;;;;;5071249;28;20385;-70
2023/12/19 06:39:32;;;;;;;10.15;6.93;;;8.10;99.90;;;;;;5105761;28;20048;-71
2023/12/19 06:42:00;;;;;;;7.78;5.50;;;8.00;99.90;;;;;;5071393;28;20044;-71
2023/12/19 06:44:27;;;;;;;8.98;6.30;;;8.00;99.90;;;;;;5069476;28;20052;-71
2023/12/19 06:46:54;;;;;;;11.63;6.30;;;8.00;99.90;;;;;;5069884;28;20049;-70
2023/12/19 06:49:21;;;;;;;11.30;6.25;;;8.00;99.90;;;;;;5071261;28;20565;-70
2023/12/19 06:51:48;;;;;;;8.77;6.32;;;8.10;99.90;;;;;;5070627;28;20044;-69
2023/12/19 06:54:15;;;;;;;10.30;6.20;;;8.10;99.90;;;;;;5070556;28;20045;-71
2023/12/19 06:56:42;;;;;;;11.80;6.93;;;8.00;99.90;;;;;;5071296;28;20496;-71
2023/12/19 06:59:10;;;;;;;8.85;5.88;;;8.10;99.90;;;;;;5070727;28;20090;-72
2023/12/19 07:01:37;;;;;;;10.25;5.65;;;8.00;99.90;;;;;;5070804;28;20464;-71
2023/12/19 07:04:04;;;;;;;8.38;5.65;;;8.00;99.90;;;;;;5069820;28;20059;-71
2023/12/19 07:06:31;;;;;;;10.77;6.43;;;8.00;99.90;;;;;;5070510;28;20396;-71
2023/12/19 07:08:59;;;;;;;10.35;6.13;;;8.00;99.90;;;;;;5071223;28;20098;-70
2023/12/19 07:11:26;;;;;;;7.72;6.18;;;9.20;99.90;;;;;;5102871;28;20109;-71
2023/12/19 07:13:53;;;;;;;8.98;5.80;;;8.10;99.90;;;;;;5070858;28;20072;-70
2023/12/19 07:16:22;;;;;;;8.63;5.50;;;8.00;99.90;;;;;;5070120;28;20052;-70
2023/12/19 07:18:49;;;;;;;8.52;5.70;;;8.10;99.90;;;;;;5069701;28;20587;-70
2023/12/19 07:21:20;;;;;;;7.25;5.22;;;8.10;99.90;;;;;;5070409;28;20052;-69
2023/12/19 07:23:48;;;;;;;8.55;5.55;;;8.10;99.90;;;;;;5070781;28;20074;-69
2023/12/19 07:26:22;;;;;;;7.80;5.50;;;8.10;99.90;;;;;;5069850;28;20048;-70
2023/12/19 07:28:51;;;;;;;7.80;4.93;;;8.10;99.90;;;;;;5070397;28;20048;-69
2023/12/19 07:31:24;;;;;;;6.70;4.65;;;8.10;99.90;;;;;;5070242;28;20439;-70
2023/12/19 07:33:52;;;;;;;6.30;4.70;;;8.10;99.90;;;;;;5019199;28;20063;-71
2023/12/19 07:36:19;;;;;;;7.60;4.75;;;8.20;99.90;;;;;;5069107;28;20397;-70
2023/12/19 07:38:46;;;;;;;6.70;4.32;;;8.20;99.90;;;;;;5102576;28;20484;-70
2023/12/19 07:41:13;;;;;;;6.22;4.15;;;8.10;99.90;;;;;;5068018;28;20471;-70
2023/12/19 07:43:40;;;;;;;9.25;5.57;;;8.20;99.90;;;;;;5069961;28;20060;-71
2023/12/19 07:46:07;;;;;;;7.63;4.88;;;8.10;99.90;;;;;;5070954;28;20506;-71
2023/12/19 07:48:35;;;;;;;7.25;4.47;;;8.10;99.90;;;;;;5071432;28;20097;-70
2023/12/19 07:51:03;;;;;;;6.80;4.60;;;8.20;99.90;;;;;;5070632;28;20068;-70
2023/12/19 07:53:30;;;;;;;5.28;3.75;;;8.10;99.90;;;;;;5069858;28;20045;-70
2023/12/19 07:55:59;;;;;;;5.85;3.85;;;8.10;99.90;;;;;;5070171;28;20119;-70
2023/12/19 07:58:26;;;;;;;5.63;3.70;;;8.10;99.90;;;;;;5070445;28;20451;-70
2023/12/19 08:00:53;;;;;;;6.78;4.20;;;8.10;99.90;;;;;;5071574;28;20041;-70
2023/12/19 08:03:20;;;;;;;4.88;3.70;;;8.10;99.90;;;;;;5071968;28;20052;-70
2023/12/19 08:05:50;;;;;;;7.65;4.03;;;8.10;99.90;;;;;;5070696;28;20052;-70
2023/12/19 08:08:17;;;;;;;7.78;4.22;;;8.10;99.90;;;;;;5070031;28;20574;-70
2023/12/19 08:10:45;;;;;;;5.93;3.83;;;8.10;99.90;;;;;;5070324;28;20049;-70
2023/12/19 08:13:12;;;;;;;5.85;3.75;;;8.20;99.90;;;;;;5070429;28;20059;-70
2023/12/19 08:15:40;;;;;;;5.88;3.63;;;8.20;99.90;;;;;;5068795;28;20044;-70
2023/12/19 08:18:08;;;;;;;5.97;3.65;;;8.20;99.90;;;;;;5070378;28;20056;-70
2023/12/19 08:20:35;;;;;;;5.53;4.22;;;8.20;99.90;;;;;;5070360;28;20048;-70
2023/12/19 08:23:04;;;;;;;7.30;3.92;;;8.20;99.90;;;;;;5069718;28;20485;-70
2023/12/19 08:25:31;;;;;;;5.10;3.55;;;8.20;99.90;;;;;;5070376;28;20060;-70
2023/12/19 08:27:58;;;;;;;5.68;3.55;;;8.30;99.90;;;;;;5070620;28;20048;-70
2023/12/19 08:30:27;;;;;;;5.25;3.90;;;8.30;99.90;;;;;;5069919;28;20052;-80
2023/12/19 08:32:54;;;;;;;6.85;4.25;;;8.20;99.90;;;;;;5074391;28;20052;-70
2023/12/19 08:35:21;;;;;;;4.90;3.20;;;8.30;99.90;;;;;;5074617;28;20131;-68
2023/12/19 08:37:48;;;;;;;6.32;4.10;;;8.20;99.90;;;;;;5073791;28;20484;-69
2023/12/19 08:40:17;;;;;;;6.93;3.95;;;8.30;99.90;;;;;;5074584;28;20134;-69
2023/12/19 08:42:44;;;;;;;6.93;4.25;;;8.30;99.90;;;;;;5074408;28;20044;-71
2023/12/19 08:45:15;;;;;;;7.63;5.28;;;8.30;99.90;;;;;;5073548;28;20052;-70
2023/12/19 08:47:42;;;;;;;6.93;4.63;;;8.30;99.90;;;;;;5075548;28;20048;-70
2023/12/19 08:50:10;;;;;;;9.32;5.28;;;8.30;99.90;;;;;;5073699;28;20109;-70
2023/12/19 08:52:37;;;;;;;7.72;5.15;;;8.30;99.90;;;;;;5074342;28;20058;-70
2023/12/19 08:55:07;;;;;;;8.68;5.88;;;8.30;99.90;;;;;;5073908;28;20048;-69
2023/12/19 08:57:36;;;;;;;9.15;5.68;;;8.40;99.90;;;;;;5073179;28;20049;-70
2023/12/19 09:00:04;;;;;;;11.40;7.03;;;8.30;99.90;;;;;;5073879;28;20080;-71
2023/12/19 09:02:31;;;;;;;9.32;6.07;;;8.40;99.90;;;;;;5073675;28;20127;-71
2023/12/19 09:04:57;;;;;;;11.10;6.40;;;8.40;99.90;;;;;;5073463;28;20052;-70
2023/12/19 09:07:24;;;;;;;9.10;7.07;;;8.40;99.90;;;;;;5074181;28;20094;-70
2023/12/19 09:09:54;;;;;;;11.30;7.57;;;8.40;99.90;;;;;;5071770;28;20056;-70
2023/12/19 09:12:21;;;;;;;11.55;7.82;;;8.50;99.90;;;;;;5073678;28;20044;-69
2023/12/19 09:14:49;;;;;;;11.38;7.43;;;8.50;99.90;;;;;;5074827;28;20392;-70
2023/12/19 09:17:16;;;;;;;13.18;8.32;;;8.50;99.90;;;;;;5072372;28;20109;-69
2023/12/19 09:19:43;;;;;;;10.95;7.95;;;8.50;99.90;;;;;;5072605;28;20085;-70
2023/12/19 09:22:10;;;;;;;12.73;7.75;;;8.60;99.90;;;;;;5074630;28;20140;-69
2023/12/19 09:24:37;;;;;;;9.93;7.35;;;8.60;99.90;;;;;;5073494;28;20509;-69
2023/12/19 09:27:04;;;;;;;12.05;7.75;;;8.60;99.90;;;;;;5072881;28;20045;-74
2023/12/19 09:29:32;;;;;;;10.50;7.75;;;8.60;99.90;;;;;;5071428;28;20459;-69
2023/12/19 09:32:04;;;;;;;11.75;7.78;;;8.60;99.90;;;;;;5074403;28;20051;-69
2023/12/19 09:34:31;;;;;;;10.52;6.85;;;8.70;99.90;;;;;;5073289;28;20131;-69
2023/12/19 09:36:58;;;;;;;10.30;7.22;;;8.60;99.90;;;;;;5072974;28;20044;-69
2023/12/19 09:39:25;;;;;;;10.02;6.85;;;8.70;99.90;;;;;;5072768;28;20450;-70
2023/12/19 09:41:53;;;;;;;11.07;6.60;;;8.70;99.90;;;;;;5072763;28;20051;-71
2023/12/19 09:44:20;;;;;;;9.73;7.00;;;8.80;99.90;;;;;;5073857;28;20040;-70
2023/12/19 09:46:50;;;;;;;9.30;6.43;;;8.80;99.90;;;;;;5072453;28;20045;-70
2023/12/19 09:49:22;;;;;;;9.90;6.07;;;8.80;99.90;;;;;;5073218;28;20048;-70
2023/12/19 09:51:53;;;;;;;8.32;5.95;;;8.80;99.90;;;;;;5071393;28;20084;-70
2023/12/19 09:54:21;;;;;;;9.05;6.32;;;8.90;99.90;;;;;;5072259;28;20468;-70
2023/12/19 09:56:48;;;;;;;8.68;6.03;;;8.80;99.90;;;;;;5072736;28;20075;-70
2023/12/19 09:59:18;;;;;;;8.98;6.88;;;8.90;99.90;;;;;;5073008;28;20049;-70
2023/12/19 10:01:45;;;;;;;9.85;6.00;;;8.90;99.90;;;;;;5072412;28;20040;-70
2023/12/19 10:04:14;;;;;;;8.63;6.45;;;8.90;99.90;;;;;;5072676;28;20067;-70
2023/12/19 10:06:54;;;;;;;9.45;6.47;;;9.00;99.90;;;;;;5072931;28;20573;-68
2023/12/19 10:09:21;;;;;;;8.32;6.20;;;9.00;99.90;;;;;;5071666;28;20459;-69
2023/12/19 10:12:02;;;;;;;8.10;6.03;;;9.00;99.90;;;;;;5072723;28;20049;-69
2023/12/19 10:14:28;;;;;;;8.20;5.93;;;8.90;99.90;;;;;;5071670;28;20052;-69
2023/12/19 10:16:55;;;;;;;7.82;5.85;;;9.00;99.90;;;;;;5072803;28;20106;-69
2023/12/19 10:19:27;;;;;;;7.78;5.47;;;8.90;99.90;;;;;;5072535;28;20044;-69
2023/12/19 10:22:06;;;;;;;7.18;5.32;;;9.00;99.90;;;;;;5071933;28;20413;-69
2023/12/19 10:24:33;;;;;;;8.90;6.05;;;9.10;99.90;;;;;;5072502;28;20467;-70
2023/12/19 10:27:01;;;;;;;8.15;5.93;;;9.10;99.90;;;;;;5072393;28;20064;-70
2023/12/19 10:29:28;;;;;;;7.38;5.82;;;9.00;99.90;;;;;;5072881;28;20079;-69
2023/12/19 10:31:55;;;;;;;8.35;6.07;;;9.00;99.90;;;;;;5070198;28;20044;-70
2023/12/19 10:34:23;;;;;;;8.15;5.57;;;9.00;99.90;;;;;;5072108;28;20083;-69
2023/12/19 10:36:50;;;;;;;8.30;5.93;;;9.20;99.90;;;;;;5072560;28;21970;-69
2023/12/19 10:39:19;;;;;;;7.35;5.25;;;9.20;99.90;;;;;;5071920;28;20094;-70
2023/12/19 10:41:45;;;;;;;9.35;6.18;;;9.10;99.90;;;;;;5072370;28;20473;-70
2023/12/19 10:44:14;;;;;;;8.57;5.75;;;9.10;99.90;;;;;;5068990;28;20080;-70
2023/12/19 10:46:41;;;;;;;9.63;7.00;;;9.20;99.90;;;;;;5073044;28;20044;-70
2023/12/19 10:49:08;;;;;;;8.88;6.85;;;9.10;99.90;;;;;;5072064;28;20083;-70
2023/12/19 10:51:36;;;;;;;9.55;6.30;;;9.20;99.90;;;;;;5071478;28;20105;-70
2023/12/19 10:54:09;;;;;;;10.27;7.05;;;9.20;99.90;;;;;;5071132;28;20056;-69
2023/12/19 10:56:46;;;;;;;9.38;6.55;;;9.20;99.90;;;;;;5071137;28;20040;-69
2023/12/19 10:59:20;;;;;;;10.65;7.25;;;9.20;99.90;;;;;;5071441;28;20052;-70
2023/12/19 11:01:50;;;;;;;10.13;7.00;;;9.30;99.90;;;;;;5071430;28;20048;-70
2023/12/19 11:04:23;;;;;;;11.90;7.40;;;9.30;99.90;;;;;;5070783;28;20064;-70
2023/12/19 11:06:56;;;;;;;12.07;7.75;;;9.40;99.90;;;;;;5071096;28;20376;-70
2023/12/19 11:09:28;;;;;;;9.43;6.72;;;9.40;99.90;;;;;;5070501;28;20056;-70
2023/12/19 11:11:59;;;;;;;10.10;7.32;;;9.50;99.90;;;;;;5071114;28;20048;-70
2023/12/19 11:14:27;;;;;;;13.10;7.70;;;9.50;99.90;;;;;;5103021;28;20048;-70
2023/12/19 11:16:59;;;;;;;9.35;6.63;;;9.60;99.90;;;;;;5070700;28;20049;-70
2023/12/19 11:19:31;;;;;;;9.73;7.10;;;9.50;99.90;;;;;;5070053;28;20062;-69
2023/12/19 11:22:07;;;;;;;9.93;7.68;;;9.50;99.90;;;;;;5071465;28;20052;-70
2023/12/19 11:24:38;;;;;;;11.07;7.72;;;9.60;99.90;;;;;;5070800;28;20056;-69
2023/12/19 11:27:14;;;;;;;10.90;7.10;;;9.60;99.90;;;;;;5063569;28;20075;-71
2023/12/19 11:29:45;;;;;;;8.98;6.80;;;9.60;99.90;;;;;;5069851;28;20097;-70
2023/12/19 11:32:36;;;;;;;9.93;7.18;;;9.60;99.90;;;;;;5067536;28;20136;-70
2023/12/19 11:35:13;;;;;;;;;;;9.60;99.90;;;;;;5068394;28;20045;-69
2023/12/19 11:37:43;;;;;;;9.45;6.68;;;9.60;99.90;;;;;;5071877;28;19925;-70
2023/12/19 11:40:18;;;;;;;8.15;5.93;;;9.60;99.90;;;;;;5070075;28;20052;-69
2023/12/19 11:42:49;;;;;;;8.57;6.30;;;9.60;99.90;;;;;;5071003;28;20044;-69
2023/12/19 11:45:40;;;;;;;9.13;6.97;;;9.70;99.90;;;;;;5071349;28;20109;-69
2023/12/19 11:48:35;;;;;;;8.30;6.40;;;9.60;99.90;;;;;;5067681;28;20048;-69
2023/12/19 11:51:02;;;;;;;8.63;6.93;;;9.60;99.90;;;;;;5070137;28;20080;-70
2023/12/19 11:53:29;;;;;;;7.93;5.63;;;9.60;99.90;;;;;;5069599;28;20098;-69
2023/12/19 11:56:05;;;;;;;9.65;6.22;;;9.60;99.90;;;;;;5069911;28;20090;-69
2023/12/19 11:58:34;;;;;;;8.25;6.05;;;9.70;99.90;;;;;;5070706;28;20102;-70
2023/12/19 12:01:02;;;;;;;8.07;6.20;;;9.60;99.90;;;;;;5067800;28;20044;-70
2023/12/19 12:03:29;;;;;;;7.85;5.97;;;9.70;99.90;;;;;;5070236;28;20048;-70
2023/12/19 12:05:56;;;;;;;7.50;5.43;;;9.60;99.90;;;;;;5069838;28;20106;-70
2023/12/19 12:08:23;;;;;;;7.82;5.47;;;9.60;99.90;;;;;;5069623;28;20105;-70
2023/12/19 12:11:00;;;;;;;6.32;4.90;;;9.60;99.90;;;;;;5070228;28;20060;-70
2023/12/19 12:13:29;;;;;;;6.20;4.97;;;9.60;99.90;;;;;;5070816;28;20044;-70
2023/12/19 12:15:58;;;;;;;7.00;5.28;;;9.60;99.90;;;;;;5067930;28;20137;-70
2023/12/19 12:18:26;;;;;;;7.63;4.65;;;9.60;99.90;;;;;;5070629;28;20048;-70
2023/12/19 12:20:55;;;;;;;7.70;5.50;;;9.50;99.90;;;;;;5070235;28;20044;-70
2023/12/19 12:23:22;;;;;;;6.65;4.60;;;9.50;99.90;;;;;;5070658;28;20048;-71
2023/12/19 12:25:56;;;;;;;6.10;4.68;;;9.50;99.90;;;;;;5069541;28;20059;-70
2023/12/19 12:28:26;;;;;;;5.88;4.88;;;9.40;99.90;;;;;;5069540;28;20240;-70
2023/12/19 12:30:59;;;;;;;6.57;4.95;;;9.50;99.90;;;;;;5069672;28;20076;-70
2023/12/19 12:33:27;;;;;;;6.95;4.65;;;9.40;99.90;;;;;;5069434;28;20135;-71
2023/12/19 12:35:55;;;;;;;6.95;5.13;;;9.50;99.90;;;;;;5069224;28;20485;-71
2023/12/19 12:38:23;;;;;;;6.07;4.72;;;9.40;99.90;;;;;;5070203;28;20048;-69
2023/12/19 12:40:59;;;;;;;6.55;4.72;;;9.40;99.90;;;;;;5069698;28;20063;-70
2023/12/19 12:43:37;;;;;;;6.95;4.60;;;9.40;99.90;;;;;;5067695;28;20092;-70
2023/12/19 12:46:08;;;;;;;6.28;4.80;;;9.50;99.90;;;;;;5069343;28;20060;-70
2023/12/19 12:48:35;;;;;;;7.53;4.30;;;9.40;99.90;;;;;;5070296;28;20084;-70
2023/12/19 12:51:04;;;;;;;5.88;4.43;;;9.50;99.90;;;;;;5067369;28;20084;-70
2023/12/19 12:53:31;;;;;;;5.57;4.25;;;9.50;99.90;;;;;;5069747;28;20407;-70